Time;durP1;ratioP1;P1;durP2;ratioP2;P2;SDS_P1;SDS_P2;PMS_P1;PMS_P2;Temp;Humidity;BMP_temperature;BMP_pressure;BME280_temperature;BME280_humidity;BME280_pressure;Samples;Min_cycle;Max_cycle;Signal;HPM_P1;HPM_P2
2022/12/26 00:01:07;;;;;;;12.33;8.90;;;;;;;8.17;71.75;100449.41;5054659;28;20653;-56
2022/12/26 00:03:34;;;;;;;10.70;7.07;;;;;;;8.14;70.90;100451.84;5054795;28;20221;-56
2022/12/26 00:06:02;;;;;;;8.63;6.00;;;;;;;8.13;70.82;100460.34;5054361;28;20703;-56
2022/12/26 00:08:28;;;;;;;10.53;7.93;;;;;;;8.19;70.54;100458.91;5054445;28;20318;-56
2022/12/26 00:10:55;;;;;;;9.13;6.47;;;;;;;8.21;70.22;100466.66;5054349;28;20191;-56
2022/12/26 00:13:22;;;;;;;8.40;7.40;;;;;;;8.22;70.57;100481.19;5054263;28;20227;-56
2022/12/26 00:15:49;;;;;;;12.70;8.50;;;;;;;8.08;71.44;100480.63;5054335;28;20198;-56
2022/12/26 00:18:16;;;;;;;16.43;10.10;;;;;;;8.07;71.45;100478.88;5054023;28;20652;-56
2022/12/26 00:20:43;;;;;;;18.67;11.77;;;;;;;8.06;71.94;100487.38;5054214;28;20197;-56
2022/12/26 00:23:11;;;;;;;20.13;13.47;;;;;;;8.00;72.07;100488.78;5068824;28;20220;-56
2022/12/26 00:25:38;;;;;;;27.70;11.57;;;;;;;7.92;71.98;100470.56;5073533;28;20197;-57
2022/12/26 00:28:05;;;;;;;17.80;10.90;;;;;;;7.97;72.42;100493.75;5074129;28;20693;-56
2022/12/26 00:30:31;;;;;;;21.83;13.00;;;;;;;7.97;72.45;100493.75;5074023;28;20198;-56
2022/12/26 00:32:58;;;;;;;25.23;14.53;;;;;;;7.85;72.93;100496.69;5073890;28;20189;-56
2022/12/26 00:35:25;;;;;;;18.13;13.27;;;;;;;7.76;73.44;100500.53;5073853;28;20196;-56
2022/12/26 00:37:52;;;;;;;22.87;16.17;;;;;;;7.67;73.86;100507.00;5073572;28;20677;-56
2022/12/26 00:40:20;;;;;;;22.70;15.57;;;;;;;7.60;74.91;100505.00;5073594;28;20202;-56
2022/12/26 00:42:47;;;;;;;19.77;13.40;;;;;;;7.49;75.04;100508.75;5070474;28;20199;-56
2022/12/26 00:45:14;;;;;;;24.53;14.30;;;;;;;7.49;75.42;100503.66;5054583;28;20234;-56
2022/12/26 00:47:40;;;;;;;17.13;12.47;;;;;;;7.53;75.78;100504.63;5053612;28;20678;-56
2022/12/26 00:50:08;;;;;;;21.77;12.13;;;;;;;7.12;75.88;100452.53;5053519;28;20245;-56
2022/12/26 00:52:34;;;;;;;20.20;12.73;;;;;;;7.39;75.66;100513.41;5053539;28;20187;-56
2022/12/26 00:55:01;;;;;;;14.67;11.30;;;;;;;7.44;75.87;100511.91;5053294;28;20673;-56
2022/12/26 00:57:29;;;;;;;19.80;12.40;;;;;;;7.33;76.19;100511.44;5054079;28;20184;-56
2022/12/26 00:59:56;;;;;;;18.70;13.02;;;;;;;7.25;76.70;100514.44;5053343;28;20446;-56
2022/12/26 01:02:38;;;;;;;19.43;12.33;;;;;;;7.25;77.05;100499.13;5072758;28;20628;-56
2022/12/26 01:05:07;;;;;;;19.47;13.23;;;;;;;7.23;77.15;100493.91;5073318;28;20217;-56
2022/12/26 01:07:35;;;;;;;19.58;15.80;;;;;;;7.27;77.90;100488.16;5071956;28;20435;-56
2022/12/26 01:10:02;;;;;;;20.70;13.57;;;;;;;7.36;76.83;100498.78;5072557;28;20272;-56
2022/12/26 01:12:30;;;;;;;21.13;13.53;;;;;;;7.29;76.68;100506.97;5073054;28;20562;-56
2022/12/26 01:14:57;;;;;;;16.67;12.37;;;;;;;7.10;77.03;100479.72;5073021;28;20242;-56
2022/12/26 01:17:24;;;;;;;15.77;11.73;;;;;;;7.26;77.03;100501.72;5072940;28;20218;-56
2022/12/26 01:19:51;;;;;;;18.00;11.57;;;;;;;7.25;76.96;100499.97;5072752;28;20642;-56
2022/12/26 01:22:18;;;;;;;19.17;11.13;;;;;;;7.20;77.59;100498.03;5072795;28;20191;-56
2022/12/26 01:24:45;;;;;;;18.77;13.17;;;;;;;7.12;77.84;100519.00;5072683;28;20717;-56
2022/12/26 01:27:12;;;;;;;16.35;14.05;;;;;;;7.13;78.27;100518.19;5071979;28;20441;-56
2022/12/26 01:29:40;;;;;;;16.27;13.00;;;;;;;7.11;78.24;100524.88;5072921;28;20190;-56
2022/12/26 01:32:07;;;;;;;16.87;11.73;;;;;;;7.00;78.11;100518.41;5072896;28;20203;-56
2022/12/26 01:34:34;;;;;;;18.60;13.10;;;;;;;6.97;78.31;100520.84;5072724;28;20601;-56
2022/12/26 01:37:00;;;;;;;16.10;11.50;;;;;;;6.97;78.56;100522.53;5072556;28;20658;-56
2022/12/26 01:39:27;;;;;;;18.93;11.57;;;;;;;6.92;78.94;100529.09;5072407;28;20191;-56
2022/12/26 01:41:54;;;;;;;22.23;15.90;;;;;;;6.92;79.68;100519.72;5072695;28;20194;-56
2022/12/26 01:44:59;;;;;;;22.83;15.17;;;;;;;6.84;80.08;100518.50;5072572;28;20222;-56
2022/12/26 01:47:36;;;;;;;21.80;14.60;;;;;;;6.81;80.03;100512.41;5072604;28;20195;-56
2022/12/26 01:50:05;;;;;;;20.57;15.07;;;;;;;6.83;80.20;100518.44;5072354;28;20655;-56
2022/12/26 01:52:35;;;;;;;19.27;13.50;;;;;;;6.81;79.95;100520.91;5072434;28;20570;-56
2022/12/26 01:55:05;;;;;;;18.10;13.43;;;;;;;6.68;79.63;100510.03;5072502;28;20678;-56
2022/12/26 01:57:48;;;;;;;17.53;12.63;;;;;;;6.71;80.26;100531.50;5072362;28;20199;-56
2022/12/26 02:00:16;;;;;;;15.93;12.47;;;;;;;6.71;80.24;100535.72;5072852;28;20201;-56
2022/12/26 02:05:36;;;;;;;18.58;12.35;;;;;;;6.68;80.45;100527.91;5072310;28;20809;-56
2022/12/26 02:08:06;;;;;;;15.27;12.27;;;;;;;6.68;80.63;100535.56;5072353;28;20249;-56
2022/12/26 02:10:39;;;;;;;17.87;12.00;;;;;;;6.69;80.27;100528.00;5072517;28;20558;-56
2022/12/26 02:13:06;;;;;;;20.17;12.23;;;;;;;6.72;80.21;100527.28;5072570;28;20267;-56
2022/12/26 02:15:34;;;;;;;18.03;11.60;;;;;;;6.49;80.29;100505.72;5072206;28;20210;-56
2022/12/26 02:18:01;;;;;;;19.37;12.70;;;;;;;6.67;80.72;100539.81;5072237;28;20191;-56
2022/12/26 02:20:31;;;;;;;20.90;12.77;;;;;;;6.63;80.25;100545.56;5072125;28;20189;-56
2022/12/26 02:23:30;;;;;;;18.37;12.10;;;;;;;6.64;80.35;100544.78;5072924;28;20196;-56
2022/12/26 02:26:35;;;;;;;20.23;13.43;;;;;;;6.58;80.99;100531.72;5055594;28;20287;-56
2022/12/26 02:29:30;;;;;;;17.83;12.03;;;;;;;6.64;80.23;100529.47;5072156;28;20195;-56
2022/12/26 02:32:09;;;;;;;18.97;12.13;;;;;;;6.67;81.15;100541.50;5050995;28;20201;-56
2022/12/26 02:34:47;;;;;;;15.87;12.27;;;;;;;6.73;80.63;100545.22;5072092;28;20553;-56
2022/12/26 02:37:28;;;;;;;17.20;12.37;;;;;;;6.68;80.26;100538.13;5072304;28;20271;-56
2022/12/26 02:40:16;;;;;;;22.07;13.23;;;;;;;6.75;80.46;100535.09;5071819;28;20187;-56
2022/12/26 02:42:54;;;;;;;20.52;15.30;;;;;;;6.83;80.96;100534.66;5070731;28;20430;-56
2022/12/26 02:48:20;;;;;;;22.27;13.70;;;;;;;6.86;79.50;100529.69;5051775;28;20233;-56
2022/12/26 03:13:38;;;;;;;18.63;13.53;;;;;;;6.77;79.21;100520.69;5052774;28;20386;-56
2022/12/26 03:18:55;;;;;;;21.13;13.40;;;;;;;6.69;80.18;100510.13;5024448;28;20200;-55
2022/12/26 03:21:27;;;;;;;27.87;20.60;;;;;;;6.61;80.51;100498.69;5055880;28;20195;-56
2022/12/26 03:23:56;;;;;;;27.37;17.87;;;;;;;6.75;80.64;100512.97;5055124;28;20199;-55
2022/12/26 03:26:39;;;;;;;19.40;13.83;;;;;;;6.67;80.80;100516.84;5055141;28;20187;-56
2022/12/26 03:31:52;;;;;;;18.80;14.03;;;;;;;6.73;80.99;100518.81;5055275;28;20678;-56
2022/12/26 03:34:19;;;;;;;20.47;14.33;;;;;;;6.74;79.80;100510.34;5054915;28;20221;-56
2022/12/26 03:37:01;;;;;;;20.63;13.90;;;;;;;6.71;80.04;100515.28;5054766;28;20274;-56
2022/12/26 04:20:02;;;;;;;30.50;20.33;;;;;;;5.33;86.91;100562.63;5074620;28;20227;-56
2022/12/26 04:45:07;;;;;;;33.07;23.77;;;;;;;4.61;90.79;100562.03;5072969;28;20440;-57
2022/12/26 04:47:34;;;;;;;30.57;20.93;;;;;;;4.55;90.25;100550.59;5074227;28;20438;-56
2022/12/26 04:50:14;;;;;;;29.45;20.67;;;;;;;4.69;90.25;100578.59;5072913;28;20430;-56
2022/12/26 04:53:00;;;;;;;24.70;19.20;;;;;;;4.65;89.70;100573.22;5073753;28;20200;-56
2022/12/26 04:55:27;;;;;;;26.13;19.03;;;;;;;4.52;90.28;100579.31;5074228;28;20199;-56
2022/12/26 04:57:54;;;;;;;21.93;17.40;;;;;;;4.54;90.57;100579.38;5073110;28;20196;-57
2022/12/26 05:00:24;;;;;;;21.67;17.17;;;;;;;4.40;91.04;100573.50;5073139;28;20194;-56
2022/12/26 05:11:11;;;;;;;16.13;12.60;;;;;;;4.35;91.44;100563.84;5073204;28;20213;-56
2022/12/26 05:13:38;;;;;;;18.83;12.83;;;;;;;4.41;91.49;100595.63;5072705;28;20219;-56
2022/12/26 05:29:48;;;;;;;26.20;17.77;;;;;;;4.27;91.80;100604.13;5072659;28;20590;-56
2022/12/26 05:35:01;;;;;;;17.50;13.33;;;;;;;4.06;91.29;100607.94;5072666;28;20203;-55
2022/12/26 05:37:28;;;;;;;17.03;12.60;;;;;;;4.01;91.64;100612.72;5071865;28;20191;-55
2022/12/26 05:39:54;;;;;;;15.97;12.43;;;;;;;3.92;92.06;100603.69;5072542;28;20195;-56
2022/12/26 05:42:21;;;;;;;16.13;12.30;;;;;;;4.03;92.18;100606.09;5072242;28;20195;-56
2022/12/26 05:44:48;;;;;;;19.03;13.80;;;;;;;4.14;91.29;100607.63;5072399;28;20244;-56
2022/12/26 05:47:15;;;;;;;16.20;12.03;;;;;;;4.22;91.13;100615.69;5072124;28;20194;-56
2022/12/26 05:49:43;;;;;;;20.27;15.20;;;;;;;4.16;90.69;100593.31;5072184;28;20197;-56
2022/12/26 05:52:10;;;;;;;29.67;19.93;;;;;;;4.31;90.87;100610.25;5072614;28;20184;-57
2022/12/26 05:54:36;;;;;;;22.23;15.80;;;;;;;4.40;90.48;100611.66;5071960;28;20199;-56
2022/12/26 05:57:03;;;;;;;22.13;15.63;;;;;;;4.48;89.79;100618.06;5056575;28;20192;-57
2022/12/26 05:59:30;;;;;;;22.63;15.63;;;;;;;4.54;90.04;100609.91;5062958;28;20188;-57
2022/12/26 06:01:57;;;;;;;22.80;15.63;;;;;;;4.56;90.05;100618.53;5051773;28;20279;-59
2022/12/26 06:04:24;;;;;;;21.87;15.80;;;;;;;4.55;90.11;100616.78;5051725;28;20259;-56
2022/12/26 06:06:55;;;;;;;26.60;17.00;;;;;;;4.64;89.07;100615.63;5051907;28;20195;-56
2022/12/26 06:09:22;;;;;;;24.87;18.30;;;;;;;4.75;89.43;100617.09;5059462;28;20198;-56
2022/12/26 06:11:49;;;;;;;24.70;17.17;;;;;;;4.72;89.09;100593.16;5071952;28;20188;-56
2022/12/26 06:14:15;;;;;;;27.27;17.93;;;;;;;4.89;88.84;100615.34;5071995;28;20227;-56
2022/12/26 06:16:42;;;;;;;28.20;18.73;;;;;;;4.93;88.67;100613.84;5071954;28;20250;-56
2022/12/26 06:19:09;;;;;;;26.87;18.20;;;;;;;5.00;88.18;100615.97;5071624;28;20617;-56
2022/12/26 06:21:36;;;;;;;29.37;19.57;;;;;;;5.05;87.90;100619.66;5071762;28;20275;-56
2022/12/26 06:24:05;;;;;;;27.50;19.27;;;;;;;5.08;86.89;100607.94;5071774;28;20183;-57
2022/12/26 06:26:32;;;;;;;29.07;19.27;;;;;;;5.09;87.54;100619.88;5061976;28;20220;-56
2022/12/26 06:28:58;;;;;;;30.20;19.70;;;;;;;5.13;86.84;100619.28;5051718;28;20196;-57
2022/12/26 06:31:25;;;;;;;25.33;17.93;;;;;;;5.27;87.39;100625.13;5051631;28;20245;-56
2022/12/26 06:33:56;;;;;;;25.80;16.83;;;;;;;5.31;86.65;100630.47;5051490;28;20197;-56
2022/12/26 06:36:25;;;;;;;28.40;16.20;;;;;;;5.34;86.30;100633.19;5052280;28;20196;-56
2022/12/26 06:38:53;;;;;;;20.43;14.63;;;;;;;5.47;85.74;100636.41;5051599;28;20202;-55
2022/12/26 06:41:24;;;;;;;20.57;14.00;;;;;;;5.58;85.18;100636.19;5051733;28;20334;-57
2022/12/26 06:43:50;;;;;;;25.00;15.33;;;;;;;5.55;84.29;100637.72;5051705;28;20194;-56
2022/12/26 06:46:19;;;;;;;19.07;14.87;;;;;;;5.57;83.95;100642.09;5051047;28;20226;-57
2022/12/26 06:48:46;;;;;;;22.80;16.10;;;;;;;5.59;84.22;100647.28;5054394;28;20186;-56
2022/12/26 06:51:14;;;;;;;22.55;16.23;;;;;;;5.74;84.33;100637.91;5055378;28;20431;-56
2022/12/26 06:53:41;;;;;;;22.43;16.40;;;;;;;6.16;83.23;100652.06;5055198;28;20739;-56
2022/12/26 06:56:10;;;;;;;21.77;16.57;;;;;;;7.01;81.25;100652.16;5055456;28;20200;-56
2022/12/26 06:58:38;;;;;;;24.00;16.67;;;;;;;7.22;77.91;100648.09;5065569;28;20678;-57
2022/12/26 07:01:06;;;;;;;22.07;15.70;;;;;;;7.17;76.43;100649.53;5075721;28;20199;-56
2022/12/26 07:03:33;;;;;;;22.20;16.37;;;;;;;7.25;75.91;100650.78;5075231;28;20190;-56
2022/12/26 07:06:03;;;;;;;25.70;17.33;;;;;;;7.07;76.10;100647.34;5075315;28;20222;-56
2022/12/26 07:08:29;;;;;;;26.20;18.40;;;;;;;6.88;76.91;100650.69;5075094;28;20195;-56
2022/12/26 07:10:56;;;;;;;26.40;18.57;;;;;;;6.73;77.93;100649.06;5075282;28;20726;-56
2022/12/26 07:13:23;;;;;;;32.10;23.77;;;;;;;6.82;78.90;100657.16;5073887;28;20445;-57
2022/12/26 07:15:51;;;;;;;30.00;19.77;;;;;;;6.82;78.11;100650.38;5075874;28;20197;-56
2022/12/26 07:18:18;;;;;;;32.90;21.40;;;;;;;6.80;78.05;100651.09;5074906;28;20203;-56
2022/12/26 07:20:45;;;;;;;38.37;25.57;;;;;;;6.69;78.50;100655.69;5075086;28;20543;-57
2022/12/26 07:23:12;;;;;;;37.53;25.87;;;;;;;6.67;78.73;100658.97;5075233;28;20195;-57
2022/12/26 07:25:38;;;;;;;38.27;27.10;;;;;;;6.69;79.10;100665.91;5074909;28;20231;-57
2022/12/26 07:28:05;;;;;;;39.80;22.60;;;;;;;6.51;79.64;100668.38;5075232;28;20203;-57
2022/12/26 07:30:32;;;;;;;35.97;21.40;;;;;;;6.65;80.03;100673.34;5074185;28;20194;-58
2022/12/26 07:33:00;;;;;;;25.87;18.80;;;;;;;6.68;79.47;100670.91;5065559;28;20190;-57
2022/12/26 07:35:30;;;;;;;23.27;18.40;;;;;;;6.66;80.24;100673.41;5074349;28;20231;-57
2022/12/26 07:37:57;;;;;;;24.00;18.83;;;;;;;6.72;79.78;100670.28;5074835;28;20204;-57
2022/12/26 07:40:24;;;;;;;34.57;23.77;;;;;;;6.70;79.65;100666.78;5074667;28;20194;-56
2022/12/26 07:42:53;;;;;;;35.03;24.10;;;;;;;6.61;79.79;100663.75;5074875;28;20189;-57
2022/12/26 07:45:20;;;;;;;41.87;26.57;;;;;;;6.58;80.42;100671.25;5074518;28;20316;-57
2022/12/26 07:47:47;;;;;;;42.03;26.47;;;;;;;6.67;81.21;100685.38;5074355;28;20652;-56
2022/12/26 07:50:15;;;;;;;37.00;25.77;;;;;;;6.76;80.80;100679.84;5074524;28;20550;-56
2022/12/26 07:52:41;;;;;;;34.10;24.93;;;;;;;6.91;79.88;100676.38;5072324;28;20198;-57
2022/12/26 07:55:09;;;;;;;27.60;19.37;;;;;;;7.02;79.41;100680.34;5073635;28;20194;-57
2022/12/26 07:57:36;;;;;;;26.67;20.70;;;;;;;7.03;79.21;100686.34;5073618;28;20243;-56
2022/12/26 08:00:04;;;;;;;33.43;20.77;;;;;;;7.12;79.27;100689.31;5073109;28;20203;-56
2022/12/26 08:02:31;;;;;;;34.83;22.43;;;;;;;7.22;79.02;100688.09;5074323;28;20185;-56
2022/12/26 08:04:58;;;;;;;35.27;23.30;;;;;;;7.30;78.71;100699.56;5074128;28;20192;-56
2022/12/26 08:07:26;;;;;;;33.23;23.13;;;;;;;7.34;78.30;100692.13;5074091;28;20232;-56
2022/12/26 08:09:53;;;;;;;30.80;21.30;;;;;;;7.37;77.48;100688.81;5073991;28;20186;-56
2022/12/26 08:12:23;;;;;;;29.80;22.20;;;;;;;7.50;76.57;100683.50;5074020;28;20189;-57
2022/12/26 08:14:50;;;;;;;29.30;20.33;;;;;;;7.42;76.28;100649.91;5073569;28;20227;-56
2022/12/26 08:17:17;;;;;;;28.07;20.27;;;;;;;7.66;75.02;100676.59;5073593;28;20231;-56
2022/12/26 08:19:44;;;;;;;28.20;21.63;;;;;;;7.70;75.17;100682.75;5073797;28;20543;-56
2022/12/26 08:22:11;;;;;;;27.47;20.60;;;;;;;7.85;74.61;100701.38;5073344;28;20192;-56
2022/12/26 08:24:39;;;;;;;28.73;19.40;;;;;;;7.88;74.14;100693.84;5073745;28;20286;-56
2022/12/26 08:27:06;;;;;;;29.30;21.57;;;;;;;7.90;74.05;100689.66;5072277;28;20220;-56
2022/12/26 08:29:32;;;;;;;28.07;20.07;;;;;;;7.94;73.60;100686.44;5073577;28;20198;-56
2022/12/26 08:31:59;;;;;;;21.40;16.17;;;;;;;7.89;73.70;100680.22;5073562;28;20707;-57
2022/12/26 08:34:32;;;;;;;23.03;16.00;;;;;;;7.95;73.48;100671.97;5073712;28;20281;-57
2022/12/26 08:36:59;;;;;;;18.90;14.13;;;;;;;8.01;73.35;100675.69;5073457;28;20661;-57
2022/12/26 08:39:26;;;;;;;20.93;14.03;;;;;;;8.08;72.96;100671.69;5073998;28;20194;-57
2022/12/26 08:41:54;;;;;;;22.37;13.80;;;;;;;8.12;72.64;100687.28;5073556;28;20192;-57
2022/12/26 08:44:21;;;;;;;19.83;13.10;;;;;;;8.03;72.36;100665.50;5072843;28;20554;-57
2022/12/26 08:46:48;;;;;;;16.53;12.93;;;;;;;8.04;72.63;100670.72;5069477;28;20219;-56
2022/12/26 08:49:14;;;;;;;15.70;13.30;;;;;;;8.09;72.34;100665.78;5070668;28;20192;-57
2022/12/26 08:51:41;;;;;;;20.17;14.70;;;;;;;8.20;72.18;100667.13;5072592;28;20200;-57
2022/12/26 08:54:08;;;;;;;29.77;14.93;;;;;;;8.32;71.79;100663.44;5073258;28;20197;-56
2022/12/26 08:56:35;;;;;;;22.33;15.43;;;;;;;8.42;71.63;100666.41;5072945;28;20191;-57
2022/12/26 08:59:03;;;;;;;21.37;15.53;;;;;;;8.52;70.72;100669.44;5065773;28;20195;-57
2022/12/26 09:01:31;;;;;;;25.27;15.70;;;;;;;8.53;70.35;100655.84;5053132;28;20188;-56
2022/12/26 09:04:00;;;;;;;24.17;17.60;;;;;;;8.63;69.63;100654.53;5061384;28;20203;-57
2022/12/26 09:06:29;;;;;;;23.57;17.13;;;;;;;8.61;69.22;100651.91;5073274;28;20310;-57
2022/12/26 09:08:55;;;;;;;22.93;16.03;;;;;;;8.58;69.78;100646.66;5073548;28;20543;-57
2022/12/26 09:11:25;;;;;;;21.30;16.37;;;;;;;8.62;70.04;100648.56;5072877;28;20198;-57
2022/12/26 09:13:53;;;;;;;21.07;16.47;;;;;;;8.73;69.59;100649.00;5073096;28;20318;-56
2022/12/26 09:16:22;;;;;;;25.50;17.90;;;;;;;8.78;70.08;100640.69;5072902;28;20203;-56
2022/12/26 09:18:54;;;;;;;29.27;20.37;;;;;;;8.87;69.38;100633.34;5072677;28;20196;-57
2022/12/26 09:21:20;;;;;;;25.87;19.43;;;;;;;8.95;69.17;100614.88;5072538;28;20610;-57
2022/12/26 09:23:47;;;;;;;23.60;16.40;;;;;;;9.03;68.38;100631.44;5072419;28;20194;-56
2022/12/26 09:26:16;;;;;;;25.93;17.27;;;;;;;8.91;68.49;100593.34;5072630;28;20218;-55
2022/12/26 09:28:44;;;;;;;18.73;11.30;;;;;;;9.10;67.65;100612.91;5068800;28;20195;-55
2022/12/26 09:31:14;;;;;;;15.70;12.83;;;;;;;9.09;66.86;100606.91;5071421;28;20215;-56
2022/12/26 09:33:43;;;;;;;16.10;12.13;;;;;;;9.04;67.16;100607.56;5071687;28;20186;-56
2022/12/26 09:36:12;;;;;;;15.55;11.57;;;;;;;9.23;67.07;100610.88;5070574;28;20790;-56
2022/12/26 09:38:39;;;;;;;16.90;12.23;;;;;;;9.49;65.34;100604.22;5072080;28;20222;-56
2022/12/26 09:41:20;;;;;;;12.30;10.57;;;;;;;9.52;64.57;100600.88;5072264;28;20197;-56
2022/12/26 09:43:58;;;;;;;14.43;10.77;;;;;;;9.60;63.91;100596.91;5072654;28;20192;-56
2022/12/26 09:46:32;;;;;;;12.27;9.73;;;;;;;9.62;64.10;100597.84;5071895;28;20690;-56
2022/12/26 09:49:05;;;;;;;17.00;10.37;;;;;;;9.55;63.61;100601.88;5071938;28;20192;-57
2022/12/26 09:51:34;;;;;;;14.20;11.87;;;;;;;9.52;63.80;100599.19;5071914;28;20187;-57
2022/12/26 09:54:03;;;;;;;21.10;13.47;;;;;;;9.56;64.37;100602.75;5066348;28;20188;-58
2022/12/26 09:56:33;;;;;;;19.13;13.20;;;;;;;9.63;63.96;100587.66;5059111;28;20208;-57
2022/12/26 09:59:05;;;;;;;18.30;13.90;;;;;;;9.71;63.61;100583.69;5051561;28;20192;-57
2022/12/26 10:01:35;;;;;;;17.43;12.73;;;;;;;9.75;63.82;100589.81;5052214;28;20191;-57
2022/12/26 10:04:22;;;;;;;16.03;11.20;;;;;;;9.76;63.47;100587.28;5052117;28;20192;-56
2022/12/26 10:06:58;;;;;;;14.93;11.13;;;;;;;9.65;63.32;100569.72;5051317;28;20211;-57
2022/12/26 10:09:54;;;;;;;13.40;10.13;;;;;;;9.86;62.80;100583.38;5060604;28;20263;-58
2022/12/26 10:12:36;;;;;;;14.97;9.60;;;;;;;9.93;61.92;100582.75;5051302;28;20619;-56
2022/12/26 10:15:12;;;;;;;16.23;11.67;;;;;;;10.03;61.44;100578.00;5068055;28;20223;-56
2022/12/26 10:17:43;;;;;;;19.63;15.45;;;;;;;10.15;61.92;100576.72;5068237;28;20433;-56
2022/12/26 10:20:25;;;;;;;14.63;12.70;;;;;;;10.19;61.10;100571.75;5071425;28;20761;-56
2022/12/26 10:23:15;;;;;;;13.10;11.70;;;;;;;10.21;60.54;100572.69;5070896;28;20223;-56
2022/12/26 10:25:47;;;;;;;16.03;11.37;;;;;;;10.23;60.21;100560.75;5069444;28;20190;-56
2022/12/26 10:28:26;;;;;;;15.73;11.23;;;;;;;10.35;60.04;100562.88;5071166;28;20622;-57
2022/12/26 10:30:56;;;;;;;19.67;12.37;;;;;;;10.28;60.72;100558.34;5070755;28;20242;-58
2022/12/26 10:33:35;;;;;;;17.07;11.97;;;;;;;10.25;60.78;100555.66;5067945;28;20204;-56
2022/12/26 10:36:16;;;;;;;16.23;11.50;;;;;;;10.34;60.17;100554.31;5067334;28;20210;-58
2022/12/26 10:38:45;;;;;;;20.40;14.40;;;;;;;10.54;60.32;100550.72;5070843;28;20777;-57
2022/12/26 10:41:18;;;;;;;18.80;12.67;;;;;;;10.62;59.19;100550.97;5071480;28;20194;-57
2022/12/26 10:43:46;;;;;;;14.23;10.67;;;;;;;10.72;59.38;100540.13;5069121;28;20676;-57
2022/12/26 10:46:26;;;;;;;19.80;11.73;;;;;;;10.63;58.50;100532.13;5066922;28;20211;-59
2022/12/26 10:48:54;;;;;;;15.67;11.37;;;;;;;10.68;58.91;100529.72;5069436;28;20657;-57
2022/12/26 10:51:22;;;;;;;18.47;12.57;;;;;;;10.81;58.87;100532.72;5069971;28;20282;-58
2022/12/26 10:53:52;;;;;;;14.73;11.80;;;;;;;10.83;58.94;100519.91;5070619;28;20654;-61
2022/12/26 10:56:21;;;;;;;17.80;11.60;;;;;;;10.75;58.68;100521.38;5070892;28;20191;-57
2022/12/26 10:58:58;;;;;;;17.03;11.50;;;;;;;10.52;58.06;100459.84;5071217;28;20202;-57
2022/12/26 11:01:36;;;;;;;16.07;12.10;;;;;;;10.87;57.81;100514.06;5069670;28;20191;-58
2022/12/26 11:04:04;;;;;;;17.70;12.10;;;;;;;10.80;57.76;100505.25;5069399;28;20222;-57
2022/12/26 11:06:39;;;;;;;14.43;12.33;;;;;;;10.87;57.82;100504.66;5069670;28;20223;-57
2022/12/26 11:09:07;;;;;;;19.60;15.90;;;;;;;10.98;58.20;100502.41;5069025;28;20657;-57
2022/12/26 11:11:50;;;;;;;23.80;16.67;;;;;;;11.05;57.58;100497.47;5069467;28;20192;-57
2022/12/26 11:14:37;;;;;;;25.77;18.90;;;;;;;11.14;57.49;100508.06;5069985;28;20224;-57
2022/12/26 11:17:06;;;;;;;23.20;18.93;;;;;;;10.08;57.53;100316.25;5070730;28;20195;-58
2022/12/26 11:19:35;;;;;;;28.33;22.25;;;;;;;11.14;58.00;100507.19;5070763;28;20932;-57
2022/12/26 11:22:30;;;;;;;25.30;20.67;;;;;;;11.21;57.79;100501.38;5070910;28;20195;-57
2022/12/26 11:25:17;;;;;;;29.77;19.93;;;;;;;11.21;58.44;100491.97;5046906;28;20188;-58
2022/12/26 11:27:50;;;;;;;24.93;19.23;;;;;;;11.21;58.50;100493.66;5070932;28;20735;-58
2022/12/26 11:30:22;;;;;;;29.30;19.23;;;;;;;11.29;58.02;100493.91;5071053;28;20282;-58
2022/12/26 11:32:52;;;;;;;30.37;18.03;;;;;;;11.26;57.86;100492.97;5070992;28;20190;-57
2022/12/26 11:35:21;;;;;;;19.20;15.27;;;;;;;11.33;58.22;100480.28;5073726;28;20234;-58
2022/12/26 11:37:55;;;;;;;15.77;12.73;;;;;;;11.22;57.88;100473.16;5074671;28;20187;-59
2022/12/26 11:40:28;;;;;;;18.87;13.27;;;;;;;11.32;58.33;100481.13;5074466;28;20202;-57
2022/12/26 11:42:58;;;;;;;17.60;12.77;;;;;;;11.33;58.06;100483.75;5074243;28;20574;-57
2022/12/26 11:45:28;;;;;;;16.40;12.67;;;;;;;11.42;57.68;100481.44;5074070;28;20195;-57
2022/12/26 11:47:57;;;;;;;17.47;11.93;;;;;;;11.14;58.25;100430.91;5074060;28;20222;-57
2022/12/26 11:50:28;;;;;;;13.50;9.80;;;;;;;11.53;57.71;100481.75;5074361;28;20646;-58
2022/12/26 11:53:05;;;;;;;8.90;7.70;;;;;;;11.50;57.66;100477.38;5074179;28;20562;-57
2022/12/26 11:55:34;;;;;;;12.27;8.80;;;;;;;11.43;57.79;100464.28;5074165;28;20219;-57
2022/12/26 11:58:05;;;;;;;11.18;8.02;;;;;;;11.49;57.65;100477.31;5073488;28;20437;-57
2022/12/26 12:00:34;;;;;;;10.10;8.37;;;;;;;11.57;57.48;100468.13;5074026;28;20662;-58
2022/12/26 12:03:02;;;;;;;10.07;8.67;;;;;;;11.55;56.88;100451.75;5073817;28;20566;-57
2022/12/26 12:05:43;;;;;;;9.90;7.57;;;;;;;11.69;56.47;100461.66;5074051;28;20672;-57
2022/12/26 12:08:28;;;;;;;8.43;7.10;;;;;;;11.76;56.87;100466.13;5074583;28;20227;-57
2022/12/26 12:11:11;;;;;;;7.77;6.43;;;;;;;11.83;56.82;100465.47;5073880;28;20195;-57
2022/12/26 12:14:10;;;;;;;10.83;7.03;;;;;;;11.86;56.56;100462.09;5074058;28;20219;-56
2022/12/26 12:16:47;;;;;;;7.87;6.23;;;;;;;11.90;56.46;100458.75;5026750;28;20191;-57
2022/12/26 12:19:34;;;;;;;7.87;6.37;;;;;;;11.95;56.40;100449.44;5073643;28;20722;-58
2022/12/26 12:22:10;;;;;;;10.93;7.10;;;;;;;11.97;56.10;100450.38;5074108;28;20195;-58
2022/12/26 12:24:54;;;;;;;11.10;7.73;;;;;;;11.99;56.03;100450.41;5073772;28;20191;-57
2022/12/26 12:27:28;;;;;;;12.13;7.03;;;;;;;12.01;56.23;100454.75;5073540;28;20218;-57
2022/12/26 12:30:13;;;;;;;13.43;6.53;;;;;;;11.93;56.12;100448.53;5074177;28;20199;-57
2022/12/26 12:32:54;;;;;;;8.83;6.10;;;;;;;11.79;56.07;100429.28;5074083;28;20299;-57
2022/12/26 12:35:42;;;;;;;9.77;6.97;;;;;;;11.99;56.09;100451.28;5063545;28;20201;-57
2022/12/26 12:38:45;;;;;;;8.67;7.13;;;;;;;11.94;56.33;100450.28;5054884;28;20782;-58
2022/12/26 12:41:36;;;;;;;7.57;6.10;;;;;;;11.93;57.07;100457.97;4998856;28;20439;-58
2022/12/26 12:44:08;;;;;;;7.33;5.77;;;;;;;11.95;56.35;100446.88;5058995;28;20678;-58
2022/12/26 12:46:42;;;;;;;10.10;6.17;;;;;;;11.99;56.43;100451.28;5076131;28;20582;-57
2022/12/26 12:49:26;;;;;;;6.87;5.73;;;;;;;12.08;56.78;100451.53;5073931;28;20184;-58
2022/12/26 12:52:00;;;;;;;7.83;5.70;;;;;;;11.84;56.26;100414.81;5073455;28;20270;-58
2022/12/26 12:55:02;;;;;;;7.47;6.03;;;;;;;12.10;55.92;100449.84;5053966;28;20188;-59
2022/12/26 12:57:36;;;;;;;6.73;5.87;;;;;;;12.11;55.34;100446.47;5046164;28;20278;-58
2022/12/26 13:00:14;;;;;;;8.73;6.23;;;;;;;11.97;55.53;100434.94;5053456;28;20570;-57
2022/12/26 13:02:45;;;;;;;6.57;5.87;;;;;;;11.96;55.83;100451.19;5065596;28;20199;-59
2022/12/26 13:05:20;;;;;;;7.10;6.10;;;;;;;12.13;55.18;100456.78;5072960;28;20196;-58
2022/12/26 13:07:52;;;;;;;6.47;5.77;;;;;;;11.96;55.57;100428.03;5072875;28;20763;-57
2022/12/26 13:10:23;;;;;;;7.73;5.87;;;;;;;12.09;55.41;100455.81;5073055;28;20188;-57
2022/12/26 13:12:53;;;;;;;10.37;6.70;;;;;;;12.08;55.64;100453.22;5072942;28;20191;-56
2022/12/26 13:15:29;;;;;;;7.50;5.80;;;;;;;12.09;55.92;100450.66;5072720;28;20723;-57
2022/12/26 13:18:01;;;;;;;7.10;5.97;;;;;;;12.09;56.23;100442.94;5073106;28;20261;-57
2022/12/26 13:20:34;;;;;;;6.30;5.43;;;;;;;12.14;55.97;100435.34;5072819;28;20200;-57
2022/12/26 13:26:02;;;;;;;7.00;5.37;;;;;;;12.25;54.96;100433.91;5062234;28;20296;-57
2022/12/26 13:28:36;;;;;;;9.47;6.00;;;;;;;12.29;54.77;100435.72;5069821;28;20706;-57
2022/12/26 13:31:03;;;;;;;8.20;5.90;;;;;;;12.26;54.84;100436.50;5071734;28;20568;-56
2022/12/26 13:33:31;;;;;;;9.20;6.63;;;;;;;12.24;55.50;100440.75;5071652;28;20197;-58
2022/12/26 13:35:59;;;;;;;8.20;5.67;;;;;;;12.23;55.17;100438.13;5071532;28;20187;-56
2022/12/26 13:39:04;;;;;;;9.13;6.27;;;;;;;12.22;55.16;100439.84;5071938;28;20195;-56
2022/12/26 13:44:27;;;;;;;10.37;8.50;;;;;;;12.26;55.47;100439.09;5067643;28;20776;-56